Time;durP1;ratioP1;P1;durP2;ratioP2;P2;SDS_P1;SDS_P2;PMS_P1;PMS_P2;Temp;Humidity;BMP_temperature;BMP_pressure;BME280_temperature;BME280_humidity;BME280_pressure;Samples;Min_cycle;Max_cycle;Signal;HPM_P1;HPM_P2
2020/12/29 00:00:26;;;;;;;4.00;1.52;;;;;;;;;;4947026;28;20063;-63
2020/12/29 00:02:51;;;;;;;3.63;1.10;;;;;;;;;;4937959;29;20039;-62
2020/12/29 00:05:17;;;;;;;3.58;1.02;;;;;;;;;;4943703;28;20083;-62
2020/12/29 00:07:53;;;;;;;2.97;0.95;;;;;;;;;;4943217;28;20046;-62
2020/12/29 00:10:25;;;;;;;5.50;1.20;;;;;;;;;;4945356;28;20253;-62
2020/12/29 00:12:51;;;;;;;5.63;1.27;;;;;;;;;;4929306;29;20051;-61
2020/12/29 00:15:18;;;;;;;7.10;1.17;;;;;;;;;;4946056;29;20063;-64
2020/12/29 00:17:44;;;;;;;3.55;1.10;;;;;;;;;;4947409;29;20484;-64
2020/12/29 00:20:10;;;;;;;8.40;1.75;;;;;;;;;;4946754;28;20067;-63
2020/12/29 00:22:36;;;;;;;4.22;1.17;;;;;;;;;;4946285;29;20043;-63
2020/12/29 00:25:03;;;;;;;5.25;1.00;;;;;;;;;;4946774;28;20180;-64
2020/12/29 00:27:29;;;;;;;7.00;1.42;;;;;;;;;;4945134;29;20111;-63
2020/12/29 00:29:54;;;;;;;6.25;1.52;;;;;;;;;;4947205;29;20742;-63
2020/12/29 00:32:20;;;;;;;4.63;1.75;;;;;;;;;;4947430;29;20479;-62
2020/12/29 00:34:50;;;;;;;6.68;2.00;;;;;;;;;;4947786;28;20071;-63
2020/12/29 00:37:16;;;;;;;6.35;2.38;;;;;;;;;;4946850;29;20040;-63
2020/12/29 00:39:42;;;;;;;6.47;1.92;;;;;;;;;;4946681;29;20035;-63
2020/12/29 00:42:08;;;;;;;6.78;1.80;;;;;;;;;;4946675;29;20055;-63
2020/12/29 00:44:34;;;;;;;6.30;1.80;;;;;;;;;;4945067;29;20055;-63
2020/12/29 00:47:00;;;;;;;7.40;2.00;;;;;;;;;;4946261;29;20046;-63
2020/12/29 00:49:26;;;;;;;4.55;1.80;;;;;;;;;;4937139;29;20119;-63
2020/12/29 00:51:53;;;;;;;6.57;2.30;;;;;;;;;;4946899;29;20046;-63
2020/12/29 00:54:19;;;;;;;9.98;2.22;;;;;;;;;;4943672;29;20397;-63
2020/12/29 00:56:45;;;;;;;6.38;2.40;;;;;;;;;;4945110;29;20043;-63
2020/12/29 00:59:11;;;;;;;6.53;2.60;;;;;;;;;;4943203;29;20050;-62
2020/12/29 01:01:37;;;;;;;6.78;1.95;;;;;;;;;;4944060;29;20050;-64
2020/12/29 01:04:02;;;;;;;5.35;1.90;;;;;;;;;;4937507;29;20101;-63
2020/12/29 01:06:29;;;;;;;6.97;2.83;;;;;;;;;;4943916;29;20044;-63
2020/12/29 01:08:55;;;;;;;7.82;2.50;;;;;;;;;;4945792;29;20091;-62
2020/12/29 01:11:20;;;;;;;10.20;2.60;;;;;;;;;;4944858;29;20047;-61
2020/12/29 01:13:46;;;;;;;7.15;2.58;;;;;;;;;;4943819;29;20050;-62
2020/12/29 01:16:12;;;;;;;6.93;2.58;;;;;;;;;;4944555;29;20043;-62
2020/12/29 01:18:39;;;;;;;7.95;3.10;;;;;;;;;;4946203;29;20063;-62
2020/12/29 01:21:05;;;;;;;13.02;4.03;;;;;;;;;;4944055;29;20139;-61
2020/12/29 01:23:33;;;;;;;11.60;5.32;;;;;;;;;;4943935;29;20133;-62
2020/12/29 01:25:59;;;;;;;9.75;5.10;;;;;;;;;;4942662;29;20047;-62
2020/12/29 01:28:25;;;;;;;9.45;4.60;;;;;;;;;;4944370;29;20072;-62
2020/12/29 01:30:51;;;;;;;7.55;3.72;;;;;;;;;;4943119;28;20043;-62
2020/12/29 01:33:17;;;;;;;9.38;3.40;;;;;;;;;;4943191;29;20047;-62
2020/12/29 01:35:43;;;;;;;10.55;2.83;;;;;;;;;;4944047;29;20394;-62
2020/12/29 01:38:09;;;;;;;7.25;2.50;;;;;;;;;;4943974;29;20047;-62
2020/12/29 01:40:35;;;;;;;7.60;3.00;;;;;;;;;;4945230;29;20086;-63
2020/12/29 01:43:01;;;;;;;7.32;3.08;;;;;;;;;;4944012;29;20139;-62
2020/12/29 01:45:27;;;;;;;11.57;2.70;;;;;;;;;;4943445;29;20138;-63
2020/12/29 01:47:54;;;;;;;12.43;4.20;;;;;;;;;;4945644;29;20078;-62
2020/12/29 01:50:21;;;;;;;9.20;3.05;;;;;;;;;;4942110;28;20075;-63
2020/12/29 01:52:48;;;;;;;7.72;2.35;;;;;;;;;;4945043;29;20057;-62
2020/12/29 01:55:14;;;;;;;9.43;2.78;;;;;;;;;;4944192;29;20134;-62
2020/12/29 01:57:40;;;;;;;6.95;2.50;;;;;;;;;;4943499;29;20055;-62
2020/12/29 02:00:07;;;;;;;4.03;1.75;;;;;;;;;;4944933;29;20051;-61
2020/12/29 02:02:34;;;;;;;6.85;1.90;;;;;;;;;;4943821;29;20065;-62
2020/12/29 02:04:59;;;;;;;5.32;2.20;;;;;;;;;;4944161;29;21066;-61
2020/12/29 02:07:26;;;;;;;7.05;1.65;;;;;;;;;;4941040;29;20047;-62
2020/12/29 02:09:52;;;;;;;5.90;2.00;;;;;;;;;;4943524;29;20071;-61
2020/12/29 02:12:27;;;;;;;4.68;1.55;;;;;;;;;;4944412;29;20043;-62
2020/12/29 02:14:54;;;;;;;6.03;1.45;;;;;;;;;;4942089;29;20070;-62
2020/12/29 02:17:39;;;;;;;4.25;1.38;;;;;;;;;;4905338;29;21249;-61
2020/12/29 02:20:06;;;;;;;6.40;1.50;;;;;;;;;;4907199;29;20044;-61
2020/12/29 02:22:32;;;;;;;4.13;1.13;;;;;;;;;;4906215;29;20043;-63
2020/12/29 02:25:17;;;;;;;5.40;1.60;;;;;;;;;;4877094;29;20369;-61
2020/12/29 02:27:45;;;;;;;7.93;1.30;;;;;;;;;;4877620;29;20037;-61
2020/12/29 02:30:12;;;;;;;5.95;1.60;;;;;;;;;;4880502;29;20533;-61
2020/12/29 02:32:38;;;;;;;5.15;1.45;;;;;;;;;;4877697;29;20052;-61
2020/12/29 02:35:05;;;;;;;4.53;1.33;;;;;;;;;;4880497;29;20510;-62
2020/12/29 02:37:30;;;;;;;3.45;1.20;;;;;;;;;;4879755;29;20078;-62
2020/12/29 02:39:56;;;;;;;5.68;1.20;;;;;;;;;;4880745;29;20053;-60
2020/12/29 02:42:22;;;;;;;4.00;1.02;;;;;;;;;;4880268;29;20041;-60
2020/12/29 02:44:48;;;;;;;4.68;1.08;;;;;;;;;;4882153;29;20048;-60
2020/12/29 02:47:14;;;;;;;3.90;1.10;;;;;;;;;;4883809;29;20040;-62
2020/12/29 02:49:40;;;;;;;4.82;1.30;;;;;;;;;;4881582;29;20117;-60
2020/12/29 02:52:07;;;;;;;5.85;1.40;;;;;;;;;;4882082;29;20053;-63
2020/12/29 02:54:33;;;;;;;4.28;1.30;;;;;;;;;;4886088;29;20207;-63
2020/12/29 02:56:59;;;;;;;4.07;1.27;;;;;;;;;;4938830;29;22738;-63
2020/12/29 02:59:25;;;;;;;2.67;0.90;;;;;;;;;;4946776;29;20126;-62
2020/12/29 03:01:51;;;;;;;4.18;1.10;;;;;;;;;;4928893;29;20040;-62
2020/12/29 03:04:17;;;;;;;4.50;1.52;;;;;;;;;;4947788;29;20053;-62
2020/12/29 03:06:43;;;;;;;3.78;1.00;;;;;;;;;;4948204;29;21026;-63
2020/12/29 03:09:09;;;;;;;5.32;1.00;;;;;;;;;;4945402;29;20050;-62
2020/12/29 03:11:35;;;;;;;3.33;1.05;;;;;;;;;;4936215;29;20071;-64
2020/12/29 03:14:03;;;;;;;4.35;0.90;;;;;;;;;;4948700;29;20048;-61
2020/12/29 03:16:29;;;;;;;4.78;1.23;;;;;;;;;;4946314;29;20051;-62
2020/12/29 03:18:55;;;;;;;3.53;0.93;;;;;;;;;;4945949;29;20044;-61
2020/12/29 03:21:21;;;;;;;3.10;1.00;;;;;;;;;;4944723;28;20036;-62
2020/12/29 03:24:48;;;;;;;5.78;2.15;;;;;;;;;;5073171;27;20422;-62
2020/12/29 03:27:14;;;;;;;3.60;1.33;;;;;;;;;;5054828;28;20041;-60
2020/12/29 03:29:40;;;;;;;4.40;1.33;;;;;;;;;;5053254;28;20064;-63
2020/12/29 03:32:06;;;;;;;5.43;1.30;;;;;;;;;;5055234;28;20067;-62
2020/12/29 03:34:39;;;;;;;4.93;1.30;;;;;;;;;;5057144;28;20057;-61
2020/12/29 03:37:05;;;;;;;2.78;0.80;;;;;;;;;;5057533;28;20070;-62
2020/12/29 03:39:31;;;;;;;2.95;0.95;;;;;;;;;;5055723;28;20037;-63
2020/12/29 03:41:57;;;;;;;3.33;0.93;;;;;;;;;;5054317;28;20044;-63
2020/12/29 03:44:23;;;;;;;3.30;1.20;;;;;;;;;;5056179;28;20072;-61
2020/12/29 03:46:49;;;;;;;4.07;1.23;;;;;;;;;;5056700;28;20058;-61
2020/12/29 03:49:15;;;;;;;3.22;1.20;;;;;;;;;;5058105;28;20037;-63
2020/12/29 03:51:41;;;;;;;2.88;0.90;;;;;;;;;;5054229;28;20064;-64
2020/12/29 03:54:07;;;;;;;1.98;0.65;;;;;;;;;;5054616;28;20150;-62
2020/12/29 03:56:33;;;;;;;2.45;0.73;;;;;;;;;;5056469;28;20120;-62
2020/12/29 03:58:59;;;;;;;3.25;0.77;;;;;;;;;;5053981;28;20056;-63
2020/12/29 04:01:24;;;;;;;1.40;0.50;;;;;;;;;;5053346;28;20041;-64
2020/12/29 04:03:50;;;;;;;2.60;0.60;;;;;;;;;;5056770;28;20053;-63
2020/12/29 04:06:16;;;;;;;6.07;0.85;;;;;;;;;;5055120;28;20040;-63
2020/12/29 04:08:42;;;;;;;1.55;0.60;;;;;;;;;;5056050;28;20041;-63
2020/12/29 04:11:09;;;;;;;1.35;0.52;;;;;;;;;;5056271;28;20059;-62
2020/12/29 04:13:35;;;;;;;1.13;0.50;;;;;;;;;;5055211;28;20047;-63
2020/12/29 04:16:01;;;;;;;1.02;0.50;;;;;;;;;;5054823;28;20053;-64
2020/12/29 04:18:27;;;;;;;1.55;0.57;;;;;;;;;;5053664;28;20045;-63
2020/12/29 04:20:54;;;;;;;0.68;0.40;;;;;;;;;;5054969;28;20043;-63
2020/12/29 04:23:20;;;;;;;0.98;0.43;;;;;;;;;;5056675;28;20045;-63
2020/12/29 04:25:46;;;;;;;1.27;0.50;;;;;;;;;;5055138;28;20063;-63
2020/12/29 04:28:12;;;;;;;2.03;0.50;;;;;;;;;;5057142;28;20044;-63
2020/12/29 04:30:38;;;;;;;0.65;0.40;;;;;;;;;;5053449;28;20041;-63
2020/12/29 04:33:03;;;;;;;2.20;0.60;;;;;;;;;;5055905;28;20068;-63
2020/12/29 04:35:29;;;;;;;1.77;0.50;;;;;;;;;;5044807;28;20037;-63
2020/12/29 04:37:55;;;;;;;1.15;0.50;;;;;;;;;;5042861;28;20147;-63
2020/12/29 04:40:21;;;;;;;0.77;0.40;;;;;;;;;;5038627;28;20042;-63
2020/12/29 04:42:47;;;;;;;0.77;0.40;;;;;;;;;;5042412;28;20485;-64
2020/12/29 04:45:13;;;;;;;0.80;0.40;;;;;;;;;;5040502;28;20037;-62
2020/12/29 04:47:39;;;;;;;0.55;0.38;;;;;;;;;;5041577;28;20035;-63
2020/12/29 04:50:05;;;;;;;0.85;0.30;;;;;;;;;;5041531;28;20063;-64
2020/12/29 04:52:31;;;;;;;2.03;0.60;;;;;;;;;;5040203;28;20686;-63
2020/12/29 04:54:57;;;;;;;1.90;0.63;;;;;;;;;;5040417;28;20030;-63
2020/12/29 04:57:24;;;;;;;6.43;0.75;;;;;;;;;;5041190;28;20041;-64
2020/12/29 04:59:50;;;;;;;5.88;1.92;;;;;;;;;;5040346;28;20051;-63
2020/12/29 05:02:35;;;;;;;4.32;1.48;;;;;;;;;;5040707;28;20049;-63
2020/12/29 05:05:01;;;;;;;1.85;0.55;;;;;;;;;;5026483;28;20052;-63
2020/12/29 05:07:28;;;;;;;2.65;0.75;;;;;;;;;;5027227;28;20104;-63
2020/12/29 05:09:54;;;;;;;2.60;0.75;;;;;;;;;;5027375;28;20056;-63
2020/12/29 05:12:20;;;;;;;3.17;0.80;;;;;;;;;;5028133;28;20044;-63
2020/12/29 05:14:47;;;;;;;4.47;0.80;;;;;;;;;;5033794;28;20041;-63
2020/12/29 05:17:13;;;;;;;2.00;0.70;;;;;;;;;;5030243;28;20474;-63
2020/12/29 05:19:40;;;;;;;2.13;0.60;;;;;;;;;;5026978;28;20112;-63
2020/12/29 05:22:07;;;;;;;1.15;0.60;;;;;;;;;;5043020;28;20075;-63
2020/12/29 05:24:33;;;;;;;2.00;0.70;;;;;;;;;;5045539;28;20053;-62
2020/12/29 05:27:00;;;;;;;1.95;0.60;;;;;;;;;;5046782;28;20151;-61
2020/12/29 05:29:26;;;;;;;2.83;0.70;;;;;;;;;;5024462;28;20056;-61
2020/12/29 05:31:52;;;;;;;1.30;0.50;;;;;;;;;;5045070;28;20602;-62
2020/12/29 05:34:23;;;;;;;3.20;0.77;;;;;;;;;;5043933;28;20108;-63
2020/12/29 05:36:49;;;;;;;0.45;0.32;;;;;;;;;;5044531;28;20052;-63
2020/12/29 05:39:15;;;;;;;3.47;0.82;;;;;;;;;;5046972;28;20093;-63
2020/12/29 05:41:42;;;;;;;4.22;0.50;;;;;;;;;;5047062;28;20053;-64
2020/12/29 05:44:08;;;;;;;1.02;0.43;;;;;;;;;;5044413;28;20053;-63
2020/12/29 05:46:35;;;;;;;1.55;0.50;;;;;;;;;;5037243;28;20041;-64
2020/12/29 05:49:01;;;;;;;0.95;0.40;;;;;;;;;;5039265;28;20099;-63
2020/12/29 05:51:28;;;;;;;1.75;0.60;;;;;;;;;;5035756;28;20056;-60
2020/12/29 05:54:01;;;;;;;3.00;0.70;;;;;;;;;;5037568;28;21367;-63
2020/12/29 05:56:33;;;;;;;0.95;0.50;;;;;;;;;;5038743;28;20667;-62
2020/12/29 05:59:00;;;;;;;4.70;0.80;;;;;;;;;;5039989;28;20044;-63
2020/12/29 06:01:37;;;;;;;1.50;0.50;;;;;;;;;;5039511;28;20045;-63
2020/12/29 06:04:03;;;;;;;3.47;0.60;;;;;;;;;;5039087;28;20049;-61
2020/12/29 06:06:31;;;;;;;2.28;0.80;;;;;;;;;;5036963;28;20045;-62
2020/12/29 06:09:00;;;;;;;2.17;0.80;;;;;;;;;;5039328;28;20041;-63
2020/12/29 06:11:33;;;;;;;3.85;0.80;;;;;;;;;;5041865;28;20060;-62
2020/12/29 06:14:01;;;;;;;3.50;0.77;;;;;;;;;;5041523;28;20099;-61
2020/12/29 06:16:32;;;;;;;2.85;0.80;;;;;;;;;;5038394;28;20101;-62
2020/12/29 06:19:02;;;;;;;4.38;0.88;;;;;;;;;;5038851;28;20041;-61
2020/12/29 06:21:29;;;;;;;2.75;0.90;;;;;;;;;;5038127;28;20041;-63
2020/12/29 06:23:55;;;;;;;3.00;0.90;;;;;;;;;;5038302;28;20114;-62
2020/12/29 06:26:32;;;;;;;4.07;0.93;;;;;;;;;;5039668;28;20101;-62
2020/12/29 06:28:59;;;;;;;4.10;0.90;;;;;;;;;;5039167;28;20051;-62
2020/12/29 06:31:29;;;;;;;3.28;0.88;;;;;;;;;;5038386;28;20047;-60
2020/12/29 06:33:56;;;;;;;3.20;1.10;;;;;;;;;;5039343;28;20433;-60
2020/12/29 06:36:23;;;;;;;8.85;1.08;;;;;;;;;;5040401;28;20072;-61
2020/12/29 06:38:49;;;;;;;7.32;1.00;;;;;;;;;;5040085;28;20043;-61
2020/12/29 06:41:18;;;;;;;4.68;1.40;;;;;;;;;;5041911;28;20037;-61
2020/12/29 06:43:44;;;;;;;3.97;1.20;;;;;;;;;;5041102;28;20129;-62
2020/12/29 06:46:12;;;;;;;5.65;1.20;;;;;;;;;;5039778;28;20040;-62
2020/12/29 06:48:57;;;;;;;3.38;1.10;;;;;;;;;;5035612;28;20128;-62
2020/12/29 06:51:23;;;;;;;3.83;1.27;;;;;;;;;;5037459;28;20203;-61
2020/12/29 06:53:49;;;;;;;4.97;1.63;;;;;;;;;;5039081;28;20100;-61
2020/12/29 06:56:35;;;;;;;5.13;1.80;;;;;;;;;;5055129;28;20043;-62
2020/12/29 06:59:01;;;;;;;3.80;1.05;;;;;;;;;;5055516;28;20631;-62
2020/12/29 07:01:28;;;;;;;3.60;1.30;;;;;;;;;;5046891;28;20033;-63
2020/12/29 07:04:04;;;;;;;3.50;1.10;;;;;;;;;;5056582;28;20071;-62
2020/12/29 07:06:30;;;;;;;3.35;1.13;;;;;;;;;;5054748;28;20130;-61
2020/12/29 07:09:08;;;;;;;6.45;1.50;;;;;;;;;;5048579;28;20120;-62
2020/12/29 07:11:35;;;;;;;3.55;1.27;;;;;;;;;;5055419;28;20143;-61
2020/12/29 07:14:04;;;;;;;7.30;1.70;;;;;;;;;;5053642;28;20086;-62
2020/12/29 07:16:31;;;;;;;4.05;1.40;;;;;;;;;;5054243;28;20040;-61
2020/12/29 07:19:22;;;;;;;3.88;1.25;;;;;;;;;;5056802;28;20226;-61
2020/12/29 07:21:48;;;;;;;4.40;1.52;;;;;;;;;;5049873;28;20542;-61
2020/12/29 07:24:17;;;;;;;3.90;1.33;;;;;;;;;;5055034;28;20095;-63
2020/12/29 07:26:43;;;;;;;4.38;1.50;;;;;;;;;;5052656;28;20056;-60
2020/12/29 07:29:09;;;;;;;3.42;1.23;;;;;;;;;;5055866;28;20064;-62
2020/12/29 07:31:38;;;;;;;4.25;1.27;;;;;;;;;;5054396;28;20044;-62
2020/12/29 07:34:04;;;;;;;3.00;1.08;;;;;;;;;;5046505;28;20045;-62
2020/12/29 07:36:31;;;;;;;4.60;1.17;;;;;;;;;;5052982;28;20041;-62
2020/12/29 07:38:57;;;;;;;3.30;1.10;;;;;;;;;;5038682;28;20068;-62
2020/12/29 07:41:23;;;;;;;3.97;1.45;;;;;;;;;;5030200;28;20425;-62
2020/12/29 07:43:51;;;;;;;3.47;1.10;;;;;;;;;;5055071;28;20049;-62
2020/12/29 07:46:17;;;;;;;2.75;1.02;;;;;;;;;;5037375;28;20047;-62
2020/12/29 07:48:43;;;;;;;3.45;0.88;;;;;;;;;;5039232;28;20093;-62
2020/12/29 07:51:08;;;;;;;4.80;1.10;;;;;;;;;;5039802;28;20075;-62
2020/12/29 07:53:34;;;;;;;3.30;0.85;;;;;;;;;;5037906;28;20049;-62
2020/12/29 07:56:00;;;;;;;2.60;0.80;;;;;;;;;;5037982;28;20105;-62
2020/12/29 07:58:26;;;;;;;3.58;1.10;;;;;;;;;;5039894;28;20047;-63
2020/12/29 08:00:52;;;;;;;2.88;0.70;;;;;;;;;;5039137;28;20033;-63
2020/12/29 08:03:18;;;;;;;1.73;0.65;;;;;;;;;;5036659;28;20076;-63
2020/12/29 08:05:45;;;;;;;2.83;0.98;;;;;;;;;;5023558;28;20061;-63
2020/12/29 08:08:11;;;;;;;1.08;0.47;;;;;;;;;;5038657;28;20056;-62
2020/12/29 08:10:39;;;;;;;1.95;0.60;;;;;;;;;;5040018;28;20102;-62
2020/12/29 08:13:06;;;;;;;2.00;0.57;;;;;;;;;;5042327;28;20049;-61
2020/12/29 08:15:36;;;;;;;1.95;0.80;;;;;;;;;;5041901;28;20037;-62
2020/12/29 08:18:05;;;;;;;2.53;1.05;;;;;;;;;;5043616;28;20048;-61
2020/12/29 08:20:31;;;;;;;6.20;1.30;;;;;;;;;;5049717;28;20042;-62
2020/12/29 08:23:04;;;;;;;3.78;1.45;;;;;;;;;;5041607;28;20048;-62
2020/12/29 08:25:30;;;;;;;3.60;1.30;;;;;;;;;;5048122;28;20036;-63
2020/12/29 08:27:58;;;;;;;3.65;1.08;;;;;;;;;;5042975;28;20095;-62
2020/12/29 08:30:24;;;;;;;3.83;1.30;;;;;;;;;;5043601;28;20513;-62
2020/12/29 08:32:52;;;;;;;4.72;1.42;;;;;;;;;;5042694;28;20063;-62
2020/12/29 08:35:19;;;;;;;4.68;1.50;;;;;;;;;;5041609;28;20103;-62
2020/12/29 08:37:54;;;;;;;4.30;1.30;;;;;;;;;;5043559;28;20470;-61
2020/12/29 08:40:22;;;;;;;4.55;1.50;;;;;;;;;;5041938;28;20041;-62
2020/12/29 08:42:52;;;;;;;5.25;1.50;;;;;;;;;;5041999;28;20170;-61
2020/12/29 08:45:23;;;;;;;4.07;1.40;;;;;;;;;;5041693;28;20041;-62
2020/12/29 08:47:53;;;;;;;5.15;1.67;;;;;;;;;;5042307;28;20454;-62
2020/12/29 08:50:37;;;;;;;4.10;1.60;;;;;;;;;;5039633;28;20049;-62
2020/12/29 08:53:05;;;;;;;3.67;1.50;;;;;;;;;;5043097;28;20028;-62
2020/12/29 08:55:31;;;;;;;4.20;1.48;;;;;;;;;;5039893;28;20052;-62
2020/12/29 08:57:58;;;;;;;4.60;1.58;;;;;;;;;;5042034;28;20033;-62
2020/12/29 09:00:24;;;;;;;4.63;1.50;;;;;;;;;;5042890;28;20040;-61
2020/12/29 09:02:50;;;;;;;4.53;1.30;;;;;;;;;;5042579;28;20057;-62
2020/12/29 09:05:23;;;;;;;4.72;1.55;;;;;;;;;;5041855;28;20052;-62
2020/12/29 09:07:49;;;;;;;3.00;1.30;;;;;;;;;;5062124;28;20041;-64
2020/12/29 09:10:18;;;;;;;3.70;1.38;;;;;;;;;;5063251;28;20133;-62
2020/12/29 09:12:45;;;;;;;5.32;1.73;;;;;;;;;;5041526;28;20036;-62
2020/12/29 09:15:14;;;;;;;4.28;1.55;;;;;;;;;;5041473;28;20049;-63
2020/12/29 09:17:41;;;;;;;4.50;1.48;;;;;;;;;;5042503;28;20037;-62
2020/12/29 09:20:13;;;;;;;4.03;1.20;;;;;;;;;;5036426;28;20033;-61
2020/12/29 09:22:49;;;;;;;3.92;1.38;;;;;;;;;;5049460;28;20113;-62
2020/12/29 09:25:30;;;;;;;3.13;1.13;;;;;;;;;;5041102;28;20034;-61
2020/12/29 09:28:08;;;;;;;4.97;1.40;;;;;;;;;;5040545;28;20045;-63
2020/12/29 09:30:34;;;;;;;4.47;1.75;;;;;;;;;;5042602;28;20134;-63
2020/12/29 09:33:00;;;;;;;3.95;1.27;;;;;;;;;;5042074;28;20616;-64
2020/12/29 09:35:27;;;;;;;5.82;1.83;;;;;;;;;;5039327;28;20068;-64
2020/12/29 09:37:57;;;;;;;3.35;1.20;;;;;;;;;;5041256;28;22813;-63
2020/12/29 09:40:24;;;;;;;4.88;1.52;;;;;;;;;;5041652;28;20041;-64
2020/12/29 09:42:49;;;;;;;4.15;1.20;;;;;;;;;;5041858;28;20063;-63
2020/12/29 09:45:19;;;;;;;3.85;1.67;;;;;;;;;;5041022;28;20044;-63
2020/12/29 09:47:45;;;;;;;5.15;1.38;;;;;;;;;;5041376;28;20041;-63
2020/12/29 09:50:11;;;;;;;6.03;1.70;;;;;;;;;;5042394;28;20034;-63
2020/12/29 09:52:38;;;;;;;4.45;1.63;;;;;;;;;;5040938;28;20044;-63
2020/12/29 09:55:05;;;;;;;8.68;1.55;;;;;;;;;;5042618;28;20052;-63
2020/12/29 09:57:30;;;;;;;3.30;1.45;;;;;;;;;;5042294;28;20045;-62
2020/12/29 09:59:57;;;;;;;4.68;1.52;;;;;;;;;;5044391;28;20101;-62
2020/12/29 10:02:23;;;;;;;3.53;1.42;;;;;;;;;;5041812;28;20033;-62
2020/12/29 10:04:49;;;;;;;3.72;1.52;;;;;;;;;;5041754;28;20131;-63
2020/12/29 10:07:15;;;;;;;4.20;1.70;;;;;;;;;;5056792;28;20037;-62
2020/12/29 10:09:40;;;;;;;4.85;1.55;;;;;;;;;;5042261;28;20037;-62
2020/12/29 10:12:06;;;;;;;4.88;1.70;;;;;;;;;;5042018;28;20041;-63
2020/12/29 10:14:32;;;;;;;4.72;1.40;;;;;;;;;;5042206;28;20037;-62
2020/12/29 10:16:58;;;;;;;4.22;1.38;;;;;;;;;;5040692;28;20038;-62
2020/12/29 10:19:24;;;;;;;3.25;1.25;;;;;;;;;;5039448;28;20049;-62
2020/12/29 10:21:56;;;;;;;5.05;1.70;;;;;;;;;;5040083;28;20116;-62
2020/12/29 10:24:24;;;;;;;3.20;1.08;;;;;;;;;;5028863;28;20060;-61
2020/12/29 10:26:53;;;;;;;3.95;1.30;;;;;;;;;;5054385;28;20109;-62
2020/12/29 10:29:19;;;;;;;3.42;1.35;;;;;;;;;;5041683;28;20097;-62
2020/12/29 10:31:46;;;;;;;3.20;1.10;;;;;;;;;;5040820;28;20033;-62
2020/12/29 10:34:13;;;;;;;2.95;1.20;;;;;;;;;;5039308;28;20461;-63
2020/12/29 10:36:39;;;;;;;3.15;1.20;;;;;;;;;;5040068;28;20514;-63
2020/12/29 10:39:06;;;;;;;3.88;1.27;;;;;;;;;;5049561;28;20036;-63
2020/12/29 10:41:33;;;;;;;5.22;1.65;;;;;;;;;;5049029;28;20041;-63
2020/12/29 10:43:58;;;;;;;4.10;1.23;;;;;;;;;;5041136;28;20053;-62
2020/12/29 10:46:24;;;;;;;4.25;1.58;;;;;;;;;;5039334;28;20112;-63
2020/12/29 10:48:50;;;;;;;4.88;1.52;;;;;;;;;;5042457;28;20041;-62
2020/12/29 10:51:20;;;;;;;3.63;1.40;;;;;;;;;;5038923;28;20038;-62
2020/12/29 10:53:46;;;;;;;3.97;1.40;;;;;;;;;;5054852;28;20082;-62
2020/12/29 10:56:12;;;;;;;4.30;1.55;;;;;;;;;;5060051;28;20148;-62
2020/12/29 10:58:39;;;;;;;4.32;1.70;;;;;;;;;;5059109;28;20045;-63
2020/12/29 11:01:05;;;;;;;3.90;1.50;;;;;;;;;;5059739;28;20040;-63
2020/12/29 11:03:31;;;;;;;5.22;1.65;;;;;;;;;;5058369;28;20044;-61
2020/12/29 11:05:57;;;;;;;6.15;1.65;;;;;;;;;;5060738;28;20041;-63
2020/12/29 11:08:27;;;;;;;5.82;1.80;;;;;;;;;;5057835;28;20048;-63
2020/12/29 11:10:53;;;;;;;3.70;1.23;;;;;;;;;;5047171;28;20052;-63
2020/12/29 11:13:19;;;;;;;5.82;1.63;;;;;;;;;;5044983;28;20044;-62
2020/12/29 11:15:46;;;;;;;5.57;1.50;;;;;;;;;;5038651;28;20033;-63
2020/12/29 11:18:11;;;;;;;4.28;1.40;;;;;;;;;;5041216;28;20057;-63
2020/12/29 11:20:37;;;;;;;4.50;1.40;;;;;;;;;;5031212;28;20749;-63
2020/12/29 11:23:03;;;;;;;4.95;1.33;;;;;;;;;;5040232;28;20064;-63
2020/12/29 11:25:29;;;;;;;4.20;1.40;;;;;;;;;;5037466;28;20045;-63
2020/12/29 11:27:55;;;;;;;5.63;1.73;;;;;;;;;;5039672;28;20041;-63
2020/12/29 11:30:21;;;;;;;3.47;1.20;;;;;;;;;;5039423;28;20036;-63
2020/12/29 11:32:47;;;;;;;5.38;1.20;;;;;;;;;;5040224;28;20563;-63
2020/12/29 11:35:13;;;;;;;6.82;1.50;;;;;;;;;;5039297;28;20034;-63
2020/12/29 11:37:38;;;;;;;5.13;1.30;;;;;;;;;;5038183;28;21007;-62
2020/12/29 11:40:04;;;;;;;5.78;1.45;;;;;;;;;;5040394;28;20064;-63
2020/12/29 11:42:30;;;;;;;4.50;1.10;;;;;;;;;;5038231;28;20057;-63
2020/12/29 11:44:56;;;;;;;3.13;1.10;;;;;;;;;;5039962;28;20689;-62
2020/12/29 11:47:22;;;;;;;4.68;1.50;;;;;;;;;;5043236;28;20047;-62
2020/12/29 11:49:48;;;;;;;4.78;1.10;;;;;;;;;;5052380;28;20139;-63
2020/12/29 11:52:14;;;;;;;4.70;1.40;;;;;;;;;;5047440;28;20056;-63
2020/12/29 11:54:40;;;;;;;4.18;1.40;;;;;;;;;;5045497;28;20041;-62
2020/12/29 11:57:25;;;;;;;4.43;1.25;;;;;;;;;;5043642;28;20063;-62
2020/12/29 11:59:51;;;;;;;3.85;1.20;;;;;;;;;;5029095;28;20041;-63
2020/12/29 12:02:17;;;;;;;5.22;1.10;;;;;;;;;;5027584;28;20044;-63
2020/12/29 12:04:43;;;;;;;3.30;1.05;;;;;;;;;;5025862;28;20050;-61
2020/12/29 12:07:11;;;;;;;3.65;1.17;;;;;;;;;;5026651;28;20033;-62
2020/12/29 12:09:38;;;;;;;3.13;1.00;;;;;;;;;;5027700;28;20038;-63
2020/12/29 12:12:04;;;;;;;3.50;1.30;;;;;;;;;;5028162;28;20048;-63
2020/12/29 12:14:30;;;;;;;3.70;1.15;;;;;;;;;;5027450;28;20045;-63
2020/12/29 12:16:56;;;;;;;2.70;0.90;;;;;;;;;;5029754;28;20046;-63
2020/12/29 12:19:22;;;;;;;4.88;1.25;;;;;;;;;;5026674;28;20075;-63
2020/12/29 12:21:47;;;;;;;3.25;1.17;;;;;;;;;;5027567;28;20045;-62
2020/12/29 12:24:13;;;;;;;3.17;1.40;;;;;;;;;;5024689;28;20135;-62
2020/12/29 12:26:39;;;;;;;2.78;0.98;;;;;;;;;;5026466;28;20043;-62
2020/12/29 12:29:05;;;;;;;3.55;1.20;;;;;;;;;;5027561;28;20071;-62
2020/12/29 12:31:31;;;;;;;3.50;1.08;;;;;;;;;;5034798;28;20140;-62
2020/12/29 12:33:57;;;;;;;3.55;1.15;;;;;;;;;;5048574;28;20092;-63
2020/12/29 12:36:23;;;;;;;3.97;1.35;;;;;;;;;;5041567;28;20037;-62
2020/12/29 12:38:48;;;;;;;3.67;1.42;;;;;;;;;;5043083;28;20037;-62
2020/12/29 12:41:15;;;;;;;3.72;1.35;;;;;;;;;;5043851;28;20038;-62
2020/12/29 12:43:41;;;;;;;4.45;1.40;;;;;;;;;;5043216;28;20489;-62
2020/12/29 12:46:07;;;;;;;4.60;1.63;;;;;;;;;;5041635;28;20048;-61
2020/12/29 12:48:33;;;;;;;3.88;1.38;;;;;;;;;;5044809;28;20067;-62
2020/12/29 12:50:59;;;;;;;4.47;1.27;;;;;;;;;;5048492;28;20168;-62
2020/12/29 12:53:25;;;;;;;3.58;1.15;;;;;;;;;;5041298;28;20041;-61
2020/12/29 12:55:51;;;;;;;3.83;1.10;;;;;;;;;;5043321;28;20045;-61
2020/12/29 12:58:17;;;;;;;4.30;1.13;;;;;;;;;;5041178;28;20036;-62
2020/12/29 13:00:43;;;;;;;5.05;1.27;;;;;;;;;;5041364;28;20045;-62
2020/12/29 13:03:09;;;;;;;4.22;1.10;;;;;;;;;;5038596;28;20072;-61
2020/12/29 13:05:35;;;;;;;3.55;1.00;;;;;;;;;;5040114;28;20046;-62
2020/12/29 13:08:02;;;;;;;3.58;1.00;;;;;;;;;;5041324;28;20068;-61
2020/12/29 13:10:28;;;;;;;2.38;0.88;;;;;;;;;;5040935;28;20477;-61
2020/12/29 13:12:53;;;;;;;2.80;0.93;;;;;;;;;;5041801;28;20063;-60
2020/12/29 13:15:19;;;;;;;3.30;1.00;;;;;;;;;;5041011;28;20038;-61
2020/12/29 13:17:45;;;;;;;4.95;1.20;;;;;;;;;;5042284;28;20034;-61
2020/12/29 13:20:11;;;;;;;3.30;0.93;;;;;;;;;;5041880;28;20080;-61
2020/12/29 13:22:37;;;;;;;6.28;1.20;;;;;;;;;;5039405;28;20215;-61
2020/12/29 13:25:04;;;;;;;4.63;1.10;;;;;;;;;;5042304;28;20065;-62
2020/12/29 13:27:30;;;;;;;3.10;1.08;;;;;;;;;;5040470;28;20040;-62
2020/12/29 13:29:56;;;;;;;4.55;1.40;;;;;;;;;;5038178;28;20045;-60
2020/12/29 13:32:22;;;;;;;3.83;0.98;;;;;;;;;;5039475;28;20042;-63
2020/12/29 13:34:48;;;;;;;3.65;0.95;;;;;;;;;;5041888;28;20478;-61
2020/12/29 13:37:14;;;;;;;3.63;1.10;;;;;;;;;;5035425;28;20074;-60
2020/12/29 13:39:39;;;;;;;2.92;0.90;;;;;;;;;;5041431;28;20033;-60
2020/12/29 13:42:06;;;;;;;7.53;1.55;;;;;;;;;;5041456;28;20033;-61
2020/12/29 13:44:33;;;;;;;3.42;1.20;;;;;;;;;;5040706;28;20073;-60
2020/12/29 13:46:59;;;;;;;2.97;1.00;;;;;;;;;;5039357;28;20045;-60
2020/12/29 13:49:25;;;;;;;6.15;1.05;;;;;;;;;;5056304;28;20041;-61
2020/12/29 13:51:51;;;;;;;4.10;1.00;;;;;;;;;;5040927;28;20118;-60
2020/12/29 13:54:17;;;;;;;4.93;0.90;;;;;;;;;;5040799;28;20033;-61
2020/12/29 13:56:43;;;;;;;2.85;0.90;;;;;;;;;;5038306;28;20040;-61
2020/12/29 13:59:11;;;;;;;3.58;1.10;;;;;;;;;;5038852;28;20041;-60
2020/12/29 14:01:40;;;;;;;3.10;0.85;;;;;;;;;;5039665;28;20052;-61
2020/12/29 14:04:05;;;;;;;4.50;1.00;;;;;;;;;;5039328;28;20063;-61
2020/12/29 14:06:31;;;;;;;3.58;1.10;;;;;;;;;;5037822;28;20089;-60
2020/12/29 14:08:57;;;;;;;5.60;1.50;;;;;;;;;;5041638;28;20087;-61
2020/12/29 14:11:23;;;;;;;3.28;1.45;;;;;;;;;;5040573;28;20108;-61
2020/12/29 14:13:49;;;;;;;8.15;1.10;;;;;;;;;;5040191;28;20044;-60
2020/12/29 14:16:15;;;;;;;3.22;1.17;;;;;;;;;;5038944;28;20029;-60
2020/12/29 14:18:41;;;;;;;4.55;1.55;;;;;;;;;;5037860;28;20815;-60
2020/12/29 14:21:09;;;;;;;4.25;1.80;;;;;;;;;;5039946;28;20128;-59
2020/12/29 14:23:35;;;;;;;3.38;1.20;;;;;;;;;;5038845;28;20077;-59
2020/12/29 14:26:01;;;;;;;3.00;1.20;;;;;;;;;;5040438;28;20839;-59
2020/12/29 14:28:27;;;;;;;4.32;1.40;;;;;;;;;;5039148;28;20053;-59
2020/12/29 14:30:53;;;;;;;4.80;1.50;;;;;;;;;;5040610;28;20041;-58
2020/12/29 14:33:21;;;;;;;5.45;1.38;;;;;;;;;;5038952;28;20422;-59
2020/12/29 14:35:47;;;;;;;3.72;1.30;;;;;;;;;;5041305;28;20163;-59
2020/12/29 14:38:13;;;;;;;4.45;1.75;;;;;;;;;;5041461;28;20088;-60
2020/12/29 14:40:39;;;;;;;2.97;1.00;;;;;;;;;;5040983;28;20045;-60
2020/12/29 14:43:05;;;;;;;3.20;1.02;;;;;;;;;;5055369;28;20077;-61